sensor_id;sensor_type;location;lat;lon;timestamp;pressure;altitude;pressure_sealevel;temperature;humidity
69214;BME280;56325;47.030;18.518;2023-01-28T00:02:18;100569.97;;;2.46;93.27
69214;BME280;56325;47.030;18.518;2023-01-28T00:04:54;100579.84;;;1.93;89.87
69214;BME280;56325;47.030;18.518;2023-01-28T00:07:28;100579.47;;;1.77;89.14
69214;BME280;56325;47.030;18.518;2023-01-28T00:10:03;100576.44;;;1.36;89.98
69214;BME280;56325;47.030;18.518;2023-01-28T00:12:38;100578.78;;;1.45;89.40
69214;BME280;56325;47.030;18.518;2023-01-28T00:15:13;100566.94;;;3.85;100.00
69214;BME280;56325;47.030;18.518;2023-01-28T00:17:48;100561.00;;;5.58;100.00
69214;BME280;56325;47.030;18.518;2023-01-28T00:20:24;100564.62;;;4.48;100.00
69214;BME280;56325;47.030;18.518;2023-01-28T00:22:58;100584.88;;;2.82;87.93
69214;BME280;56325;47.030;18.518;2023-01-28T00:25:33;100576.59;;;2.34;86.62
69214;BME280;56325;47.030;18.518;2023-01-28T00:28:07;100591.47;;;1.80;88.74
69214;BME280;56325;47.030;18.518;2023-01-28T00:30:42;100587.28;;;1.64;88.29
69214;BME280;56325;47.030;18.518;2023-01-28T00:33:16;100588.84;;;1.30;90.18
69214;BME280;56325;47.030;18.518;2023-01-28T00:35:58;100590.00;;;1.25;90.37
69214;BME280;56325;47.030;18.518;2023-01-28T00:38:33;100586.13;;;1.19;90.06
69214;BME280;56325;47.030;18.518;2023-01-28T00:41:08;100585.72;;;1.10;91.07
69214;BME280;56325;47.030;18.518;2023-01-28T00:43:43;100594.97;;;0.88;91.91
69214;BME280;56325;47.030;18.518;2023-01-28T00:46:18;100583.75;;;0.93;92.47
69214;BME280;56325;47.030;18.518;2023-01-28T00:48:54;100588.81;;;1.16;91.02
69214;BME280;56325;47.030;18.518;2023-01-28T00:51:30;100586.50;;;1.18;90.42
69214;BME280;56325;47.030;18.518;2023-01-28T00:54:04;100589.94;;;0.90;91.29
69214;BME280;56325;47.030;18.518;2023-01-28T00:56:39;100594.97;;;0.77;92.80
69214;BME280;56325;47.030;18.518;2023-01-28T00:59:13;100590.72;;;0.90;91.69
69214;BME280;56325;47.030;18.518;2023-01-28T01:01:48;100596.94;;;1.02;91.06
69214;BME280;56325;47.030;18.518;2023-01-28T01:04:23;100588.03;;;0.83;91.82
69214;BME280;56325;47.030;18.518;2023-01-28T01:07:01;100593.44;;;0.97;92.02
69214;BME280;56325;47.030;18.518;2023-01-28T01:09:35;100594.59;;;0.93;91.42
69214;BME280;56325;47.030;18.518;2023-01-28T01:12:10;100598.84;;;0.94;91.44
69214;BME280;56325;47.030;18.518;2023-01-28T01:14:44;100596.91;;;0.91;91.17
69214;BME280;56325;47.030;18.518;2023-01-28T01:17:19;100587.25;;;0.93;91.24
69214;BME280;56325;47.030;18.518;2023-01-28T01:19:54;100593.03;;;0.81;91.77
69214;BME280;56325;47.030;18.518;2023-01-28T01:22:33;100598.06;;;0.83;91.61
69214;BME280;56325;47.030;18.518;2023-01-28T01:25:09;100598.06;;;0.76;91.82
69214;BME280;56325;47.030;18.518;2023-01-28T01:27:47;100603.47;;;0.76;92.00
69214;BME280;56325;47.030;18.518;2023-01-28T01:30:23;100600.41;;;0.84;91.60
69214;BME280;56325;47.030;18.518;2023-01-28T01:32:58;100598.84;;;0.90;91.40
69214;BME280;56325;47.030;18.518;2023-01-28T01:35:32;100597.31;;;0.96;91.47
69214;BME280;56325;47.030;18.518;2023-01-28T01:38:08;100598.44;;;0.92;91.20
69214;BME280;56325;47.030;18.518;2023-01-28T01:40:42;100595.75;;;0.78;91.97
69214;BME280;56325;47.030;18.518;2023-01-28T01:43:18;100603.50;;;0.86;91.67
69214;BME280;56325;47.030;18.518;2023-01-28T01:45:55;100601.19;;;1.13;90.39
69214;BME280;56325;47.030;18.518;2023-01-28T01:48:33;100609.69;;;1.08;90.61
69214;BME280;56325;47.030;18.518;2023-01-28T01:51:09;100612.00;;;1.03;90.10
69214;BME280;56325;47.030;18.518;2023-01-28T01:53:49;100599.22;;;0.92;90.69
69214;BME280;56325;47.030;18.518;2023-01-28T01:56:29;100610.84;;;0.86;90.71
69214;BME280;56325;47.030;18.518;2023-01-28T01:59:09;100610.06;;;0.99;90.38
69214;BME280;56325;47.030;18.518;2023-01-28T02:01:45;100613.53;;;0.79;90.61
69214;BME280;56325;47.030;18.518;2023-01-28T02:04:24;100609.66;;;0.87;90.90
69214;BME280;56325;47.030;18.518;2023-01-28T02:06:59;100616.66;;;1.02;90.70
69214;BME280;56325;47.030;18.518;2023-01-28T02:09:37;100618.22;;;1.07;89.97
69214;BME280;56325;47.030;18.518;2023-01-28T02:12:15;100611.25;;;1.02;89.90
69214;BME280;56325;47.030;18.518;2023-01-28T02:14:53;100616.63;;;0.88;90.45
69214;BME280;56325;47.030;18.518;2023-01-28T02:17:30;100608.53;;;1.02;90.10
69214;BME280;56325;47.030;18.518;2023-01-28T02:20:07;100615.09;;;0.94;89.97
69214;BME280;56325;47.030;18.518;2023-01-28T02:28:57;100610.47;;;0.84;90.99
69214;BME280;56325;47.030;18.518;2023-01-28T02:31:38;100608.91;;;0.97;90.72
69214;BME280;56325;47.030;18.518;2023-01-28T02:34:21;100612.78;;;0.96;90.25
69214;BME280;56325;47.030;18.518;2023-01-28T02:37:02;100607.75;;;1.02;89.65
69214;BME280;56325;47.030;18.518;2023-01-28T02:39:44;100608.91;;;0.93;90.80
69214;BME280;56325;47.030;18.518;2023-01-28T02:42:23;100603.50;;;1.01;89.57
69214;BME280;56325;47.030;18.518;2023-01-28T02:45:00;100605.81;;;0.91;90.34
69214;BME280;56325;47.030;18.518;2023-01-28T02:47:34;100605.84;;;1.06;90.50
69214;BME280;56325;47.030;18.518;2023-01-28T02:50:35;100605.81;;;1.02;89.93
69214;BME280;56325;47.030;18.518;2023-01-28T02:53:18;100604.66;;;1.03;89.68
69214;BME280;56325;47.030;18.518;2023-01-28T02:56:21;100598.06;;;0.90;89.91
69214;BME280;56325;47.030;18.518;2023-01-28T02:59:05;100607.75;;;0.98;89.67
69214;BME280;56325;47.030;18.518;2023-01-28T03:02:07;100611.62;;;0.86;90.09
69214;BME280;56325;47.030;18.518;2023-01-28T03:04:46;100602.31;;;0.91;89.94
69214;BME280;56325;47.030;18.518;2023-01-28T03:07:25;100610.84;;;0.79;90.16
69214;BME280;56325;47.030;18.518;2023-01-28T03:10:07;100606.97;;;0.90;90.20
69214;BME280;56325;47.030;18.518;2023-01-28T03:12:45;100615.47;;;0.92;90.00
69214;BME280;56325;47.030;18.518;2023-01-28T03:15:42;100612.38;;;0.80;90.26
69214;BME280;56325;47.030;18.518;2023-01-28T03:18:42;100615.84;;;0.77;89.97
69214;BME280;56325;47.030;18.518;2023-01-28T03:21:39;100608.12;;;0.79;90.37
69214;BME280;56325;47.030;18.518;2023-01-28T03:24:40;100621.28;;;0.84;90.24
69214;BME280;56325;47.030;18.518;2023-01-28T03:27:40;100627.06;;;0.75;90.23
69214;BME280;56325;47.030;18.518;2023-01-28T03:30:39;100624.38;;;0.79;90.30
69214;BME280;56325;47.030;18.518;2023-01-28T03:33:35;100613.16;;;0.77;90.48
69214;BME280;56325;47.030;18.518;2023-01-28T03:36:29;100611.59;;;0.79;90.17
69214;BME280;56325;47.030;18.518;2023-01-28T03:39:26;100617.78;;;0.73;90.11
69214;BME280;56325;47.030;18.518;2023-01-28T03:42:03;100616.59;;;0.67;90.69
69214;BME280;56325;47.030;18.518;2023-01-28T03:44:38;100615.47;;;0.75;90.26
69214;BME280;56325;47.030;18.518;2023-01-28T03:47:26;100614.31;;;0.76;90.36
69214;BME280;56325;47.030;18.518;2023-01-28T03:50:01;100618.09;;;0.57;90.88
69214;BME280;56325;47.030;18.518;2023-01-28T03:52:39;100618.91;;;0.64;90.45
69214;BME280;56325;47.030;18.518;2023-01-28T03:55:14;100618.53;;;0.70;90.72
69214;BME280;56325;47.030;18.518;2023-01-28T03:57:49;100620.06;;;0.63;90.70
69214;BME280;56325;47.030;18.518;2023-01-28T04:00:24;100617.41;;;0.85;89.95
69214;BME280;56325;47.030;18.518;2023-01-28T04:02:59;100622.81;;;0.81;90.01
69214;BME280;56325;47.030;18.518;2023-01-28T04:05:34;100614.28;;;0.69;89.90
69214;BME280;56325;47.030;18.518;2023-01-28T04:08:10;100620.09;;;0.78;90.04
69214;BME280;56325;47.030;18.518;2023-01-28T04:10:44;100621.28;;;0.80;89.44
69214;BME280;56325;47.030;18.518;2023-01-28T04:13:20;100624.34;;;0.72;89.86
69214;BME280;56325;47.030;18.518;2023-01-28T04:15:55;100617.41;;;0.78;89.75
69214;BME280;56325;47.030;18.518;2023-01-28T04:18:30;100628.22;;;0.71;89.72
69214;BME280;56325;47.030;18.518;2023-01-28T04:21:07;100629.38;;;0.77;89.48
69214;BME280;56325;47.030;18.518;2023-01-28T04:23:43;100621.25;;;0.77;89.95
69214;BME280;56325;47.030;18.518;2023-01-28T04:26:18;100623.59;;;0.78;89.89
69214;BME280;56325;47.030;18.518;2023-01-28T04:28:53;100625.47;;;0.67;89.50
69214;BME280;56325;47.030;18.518;2023-01-28T04:31:27;100630.50;;;0.61;89.66
69214;BME280;56325;47.030;18.518;2023-01-28T04:34:02;100624.78;;;0.84;89.42
69214;BME280;56325;47.030;18.518;2023-01-28T04:36:37;100636.34;;;0.78;89.02
69214;BME280;56325;47.030;18.518;2023-01-28T04:39:13;100637.09;;;0.68;89.47
69214;BME280;56325;47.030;18.518;2023-01-28T04:41:47;100640.53;;;0.61;89.83
69214;BME280;56325;47.030;18.518;2023-01-28T04:44:22;100639.44;;;0.76;89.49
69214;BME280;56325;47.030;18.518;2023-01-28T04:46:57;100642.09;;;0.65;89.61
69214;BME280;56325;47.030;18.518;2023-01-28T04:49:31;100642.12;;;0.69;89.70
69214;BME280;56325;47.030;18.518;2023-01-28T04:52:08;100655.25;;;0.67;89.90
69214;BME280;56325;47.030;18.518;2023-01-28T04:54:44;100647.16;;;0.71;89.11
69214;BME280;56325;47.030;18.518;2023-01-28T04:57:18;100648.69;;;0.64;89.74
69214;BME280;56325;47.030;18.518;2023-01-28T04:59:53;100648.31;;;0.73;89.30
69214;BME280;56325;47.030;18.518;2023-01-28T05:02:27;100642.12;;;0.69;90.01
69214;BME280;56325;47.030;18.518;2023-01-28T05:05:02;100653.38;;;0.82;89.08
69214;BME280;56325;47.030;18.518;2023-01-28T05:07:41;100658.38;;;0.73;89.13
69214;BME280;56325;47.030;18.518;2023-01-28T05:10:18;100660.28;;;0.69;89.48
69214;BME280;56325;47.030;18.518;2023-01-28T05:12:52;100658.34;;;0.69;89.70
69214;BME280;56325;47.030;18.518;2023-01-28T05:15:27;100659.50;;;0.64;89.40
69214;BME280;56325;47.030;18.518;2023-01-28T05:18:01;100662.19;;;0.64;89.90
69214;BME280;56325;47.030;18.518;2023-01-28T05:20:37;100652.88;;;0.55;89.71
69214;BME280;56325;47.030;18.518;2023-01-28T05:23:11;100654.44;;;0.59;89.88
69214;BME280;56325;47.030;18.518;2023-01-28T05:25:48;100661.06;;;0.65;89.52
69214;BME280;56325;47.030;18.518;2023-01-28T05:28:24;100664.53;;;0.70;89.55
69214;BME280;56325;47.030;18.518;2023-01-28T05:31:02;100657.16;;;0.59;89.72
69214;BME280;56325;47.030;18.518;2023-01-28T05:33:37;100668.38;;;0.58;89.43
69214;BME280;56325;47.030;18.518;2023-01-28T05:36:13;100663.69;;;0.51;90.47
69214;BME280;56325;47.030;18.518;2023-01-28T05:38:48;100668.28;;;0.44;90.37
69214;BME280;56325;47.030;18.518;2023-01-28T05:41:24;100670.22;;;0.43;90.83
69214;BME280;56325;47.030;18.518;2023-01-28T05:44:00;100668.28;;;0.40;90.96
69214;BME280;56325;47.030;18.518;2023-01-28T05:46:36;100678.38;;;0.50;90.24
69214;BME280;56325;47.030;18.518;2023-01-28T05:49:10;100678.38;;;0.50;90.59
69214;BME280;56325;47.030;18.518;2023-01-28T05:51:49;100673.78;;;0.61;89.75
69214;BME280;56325;47.030;18.518;2023-01-28T05:54:23;100684.97;;;0.53;89.99
69214;BME280;56325;47.030;18.518;2023-01-28T05:57:00;100683.78;;;0.47;90.43
69214;BME280;56325;47.030;18.518;2023-01-28T05:59:35;100681.50;;;0.59;89.68
69214;BME280;56325;47.030;18.518;2023-01-28T06:02:09;100687.66;;;0.49;90.03
69214;BME280;56325;47.030;18.518;2023-01-28T06:04:44;100694.13;;;0.34;90.19
69214;BME280;56325;47.030;18.518;2023-01-28T06:07:19;100690.72;;;0.44;89.96
69214;BME280;56325;47.030;18.518;2023-01-28T06:09:54;100699.62;;;0.48;90.40
69214;BME280;56325;47.030;18.518;2023-01-28T06:12:30;100696.56;;;0.57;89.28
69214;BME280;56325;47.030;18.518;2023-01-28T06:15:06;100705.84;;;0.56;89.59
69214;BME280;56325;47.030;18.518;2023-01-28T06:17:41;100700.78;;;0.47;89.81
69214;BME280;56325;47.030;18.518;2023-01-28T06:20:18;100709.72;;;0.58;89.23
69214;BME280;56325;47.030;18.518;2023-01-28T06:22:53;100707.75;;;0.52;89.32
69214;BME280;56325;47.030;18.518;2023-01-28T06:25:28;100712.78;;;0.50;89.82
69214;BME280;56325;47.030;18.518;2023-01-28T06:28:05;100718.97;;;0.50;88.89
69214;BME280;56325;47.030;18.518;2023-01-28T06:30:40;100715.56;;;0.68;88.66
69214;BME280;56325;47.030;18.518;2023-01-28T06:33:14;100716.34;;;0.64;88.36
69214;BME280;56325;47.030;18.518;2023-01-28T06:35:49;100724.81;;;0.59;88.29
69214;BME280;56325;47.030;18.518;2023-01-28T06:38:23;100741.06;;;0.63;88.70
69214;BME280;56325;47.030;18.518;2023-01-28T06:40:58;100730.25;;;0.67;87.98
69214;BME280;56325;47.030;18.518;2023-01-28T06:43:34;100738.75;;;0.65;88.43
69214;BME280;56325;47.030;18.518;2023-01-28T06:46:08;100738.84;;;0.79;88.91
69214;BME280;56325;47.030;18.518;2023-01-28T06:48:43;100739.19;;;0.74;87.64
69214;BME280;56325;47.030;18.518;2023-01-28T06:51:17;100747.28;;;0.67;88.54
69214;BME280;56325;47.030;18.518;2023-01-28T06:53:52;100753.16;;;0.90;87.41
69214;BME280;56325;47.030;18.518;2023-01-28T06:56:26;100757.72;;;0.69;87.35
69214;BME280;56325;47.030;18.518;2023-01-28T06:59:02;100756.88;;;0.57;88.51
69214;BME280;56325;47.030;18.518;2023-01-28T07:02:56;100749.78;;;1.18;87.14
69214;BME280;56325;47.030;18.518;2023-01-28T07:05:31;100749.78;;;1.18;87.14
69214;BME280;56325;47.030;18.518;2023-01-28T07:08:05;100762.34;;;0.64;88.50
69214;BME280;56325;47.030;18.518;2023-01-28T07:10:40;100762.66;;;0.52;89.11
69214;BME280;56325;47.030;18.518;2023-01-28T07:13:14;100763.44;;;0.53;89.57
69214;BME280;56325;47.030;18.518;2023-01-28T07:15:49;100764.22;;;0.53;89.39
69214;BME280;56325;47.030;18.518;2023-01-28T07:18:25;100767.31;;;0.55;90.22
69214;BME280;56325;47.030;18.518;2023-01-28T07:20:59;100769.66;;;0.60;90.11
69214;BME280;56325;47.030;18.518;2023-01-28T07:23:34;100776.16;;;0.49;90.17
69214;BME280;56325;47.030;18.518;2023-01-28T07:26:08;100772.03;;;0.69;89.70
69214;BME280;56325;47.030;18.518;2023-01-28T07:28:43;100772.06;;;0.73;89.92
69214;BME280;56325;47.030;18.518;2023-01-28T07:31:17;100770.47;;;0.68;89.92
69214;BME280;56325;47.030;18.518;2023-01-28T07:33:53;100769.37;;;0.80;90.36
69214;BME280;56325;47.030;18.518;2023-01-28T07:36:28;100771.66;;;0.71;89.79
69214;BME280;56325;47.030;18.518;2023-01-28T07:39:03;100772.84;;;0.77;89.83
69214;BME280;56325;47.030;18.518;2023-01-28T07:41:37;100758.31;;;1.24;94.10
69214;BME280;56325;47.030;18.518;2023-01-28T07:44:15;100763.13;;;3.39;100.00
69214;BME280;56325;47.030;18.518;2023-01-28T07:46:49;100768.13;;;1.68;95.17
69214;BME280;56325;47.030;18.518;2023-01-28T07:49:25;100766.13;;;1.47;92.33
69214;BME280;56325;47.030;18.518;2023-01-28T07:51:59;100775.97;;;0.89;90.03
69214;BME280;56325;47.030;18.518;2023-01-28T07:54:34;100785.72;;;1.01;91.33
69214;BME280;56325;47.030;18.518;2023-01-28T07:57:08;100781.81;;;0.98;91.34
69214;BME280;56325;47.030;18.518;2023-01-28T07:59:47;100776.44;;;1.02;91.46
69214;BME280;56325;47.030;18.518;2023-01-28T08:02:21;100779.84;;;0.81;90.20
69214;BME280;56325;47.030;18.518;2023-01-28T08:04:57;100792.94;;;0.76;90.64
69214;BME280;56325;47.030;18.518;2023-01-28T08:07:33;100790.56;;;0.63;91.46
69214;BME280;56325;47.030;18.518;2023-01-28T08:10:09;100780.63;;;0.85;90.72
69214;BME280;56325;47.030;18.518;2023-01-28T08:12:51;100780.69;;;1.03;90.11
69214;BME280;56325;47.030;18.518;2023-01-28T08:15:27;100787.91;;;0.74;90.51
69214;BME280;56325;47.030;18.518;2023-01-28T08:18:03;100782.91;;;0.80;90.44
69214;BME280;56325;47.030;18.518;2023-01-28T08:20:40;100784.84;;;0.79;91.35
69214;BME280;56325;47.030;18.518;2023-01-28T08:23:17;100789.59;;;1.04;90.23
69214;BME280;56325;47.030;18.518;2023-01-28T08:25:57;100795.75;;;0.97;90.54
69214;BME280;56325;47.030;18.518;2023-01-28T08:28:32;100799.19;;;0.87;90.82
69214;BME280;56325;47.030;18.518;2023-01-28T08:31:06;100800.00;;;0.98;89.42
69214;BME280;56325;47.030;18.518;2023-01-28T08:33:41;100799.19;;;0.87;90.45
69214;BME280;56325;47.030;18.518;2023-01-28T08:36:17;100805.47;;;1.05;90.11
69214;BME280;56325;47.030;18.518;2023-01-28T08:38:51;100800.72;;;0.81;90.13
69214;BME280;56325;47.030;18.518;2023-01-28T08:41:29;100792.03;;;4.67;100.00
69214;BME280;56325;47.030;18.518;2023-01-28T08:44:04;100798.12;;;3.92;100.00
69214;BME280;56325;47.030;18.518;2023-01-28T08:46:38;100806.13;;;2.21;91.19
69214;BME280;56325;47.030;18.518;2023-01-28T08:49:13;100809.19;;;1.70;88.63
69214;BME280;56325;47.030;18.518;2023-01-28T08:51:49;100823.81;;;1.47;88.00
69214;BME280;56325;47.030;18.518;2023-01-28T08:54:24;100798.41;;;3.46;100.00
69214;BME280;56325;47.030;18.518;2023-01-28T08:56:58;100799.00;;;5.36;100.00
69214;BME280;56325;47.030;18.518;2023-01-28T08:59:35;100801.31;;;3.07;86.45
69214;BME280;56325;47.030;18.518;2023-01-28T09:02:12;100818.91;;;2.45;87.51
69214;BME280;56325;47.030;18.518;2023-01-28T09:05:03;100821.97;;;1.83;86.22
69214;BME280;56325;47.030;18.518;2023-01-28T09:07:39;100816.53;;;1.73;86.41
69214;BME280;56325;47.030;18.518;2023-01-28T09:10:14;100821.16;;;1.76;86.68
69214;BME280;56325;47.030;18.518;2023-01-28T09:12:49;100834.75;;;1.72;85.93
69214;BME280;56325;47.030;18.518;2023-01-28T09:15:27;100817.31;;;1.66;86.10
69214;BME280;56325;47.030;18.518;2023-01-28T09:18:02;100823.06;;;1.50;86.73
69214;BME280;56325;47.030;18.518;2023-01-28T09:20:37;100822.69;;;1.59;86.80
69214;BME280;56325;47.030;18.518;2023-01-28T09:23:14;100827.75;;;1.64;86.78
69214;BME280;56325;47.030;18.518;2023-01-28T09:25:48;100828.94;;;1.91;85.72
69214;BME280;56325;47.030;18.518;2023-01-28T09:28:23;100834.00;;;2.00;85.85
69214;BME280;56325;47.030;18.518;2023-01-28T09:31:01;100814.53;;;4.33;100.00
69214;BME280;56325;47.030;18.518;2023-01-28T09:33:38;100821.00;;;5.21;100.00
69214;BME280;56325;47.030;18.518;2023-01-28T09:36:13;100828.09;;;3.01;82.41
69214;BME280;56325;47.030;18.518;2023-01-28T09:38:48;100813.44;;;2.63;82.87
69214;BME280;56325;47.030;18.518;2023-01-28T09:41:26;100824.72;;;2.47;83.71
69214;BME280;56325;47.030;18.518;2023-01-28T09:44:11;100823.16;;;2.32;84.21
69214;BME280;56325;47.030;18.518;2023-01-28T09:46:50;100831.69;;;2.20;83.78
69214;BME280;56325;47.030;18.518;2023-01-28T09:49:33;100822.00;;;2.19;83.90
69214;BME280;56325;47.030;18.518;2023-01-28T09:52:12;100825.88;;;2.18;84.10
69214;BME280;56325;47.030;18.518;2023-01-28T09:54:51;100835.19;;;2.17;83.83
69214;BME280;56325;47.030;18.518;2023-01-28T09:57:30;100831.28;;;2.04;83.70
69214;BME280;56325;47.030;18.518;2023-01-28T10:00:15;100832.47;;;2.13;82.70
69214;BME280;56325;47.030;18.518;2023-01-28T10:03:12;100835.16;;;1.95;83.68
69214;BME280;56325;47.030;18.518;2023-01-28T10:06:03;100825.06;;;1.85;83.50
69214;BME280;56325;47.030;18.518;2023-01-28T10:08:59;100829.72;;;1.88;83.44
69214;BME280;56325;47.030;18.518;2023-01-28T10:11:55;100828.56;;;1.86;83.76
69214;BME280;56325;47.030;18.518;2023-01-28T10:14:44;100823.53;;;1.91;83.33
69214;BME280;56325;47.030;18.518;2023-01-28T10:17:25;100820.44;;;2.00;83.24
69214;BME280;56325;47.030;18.518;2023-01-28T10:20:05;100831.28;;;1.89;82.54
69214;BME280;56325;47.030;18.518;2023-01-28T10:22:47;100828.19;;;1.94;83.31
69214;BME280;56325;47.030;18.518;2023-01-28T10:25:25;100811.50;;;4.24;100.00
69214;BME280;56325;47.030;18.518;2023-01-28T10:28:09;100817.22;;;4.78;98.94
69214;BME280;56325;47.030;18.518;2023-01-28T10:30:48;100825.00;;;2.99;82.54
69214;BME280;56325;47.030;18.518;2023-01-28T10:33:29;100827.44;;;2.54;82.19
69214;BME280;56325;47.030;18.518;2023-01-28T10:36:06;100819.69;;;2.46;82.64
69214;BME280;56325;47.030;18.518;2023-01-28T10:38:41;100820.84;;;2.41;82.57
69214;BME280;56325;47.030;18.518;2023-01-28T10:41:19;100826.28;;;2.30;83.37
69214;BME280;56325;47.030;18.518;2023-01-28T10:43:56;100821.22;;;2.36;82.81
69214;BME280;56325;47.030;18.518;2023-01-28T10:46:33;100823.56;;;2.34;82.87
69214;BME280;56325;47.030;18.518;2023-01-28T10:49:13;100821.22;;;2.33;83.06
69214;BME280;56325;47.030;18.518;2023-01-28T10:51:49;100823.56;;;2.55;82.53
69214;BME280;56325;47.030;18.518;2023-01-28T10:54:25;100823.56;;;2.34;82.17
69214;BME280;56325;47.030;18.518;2023-01-28T10:57:01;100826.66;;;2.29;82.06
69214;BME280;56325;47.030;18.518;2023-01-28T10:59:38;100832.88;;;2.33;82.54
69214;BME280;56325;47.030;18.518;2023-01-28T11:02:25;100836.34;;;2.37;83.21
69214;BME280;56325;47.030;18.518;2023-01-28T11:05:03;100833.63;;;2.26;81.95
69214;BME280;56325;47.030;18.518;2023-01-28T11:07:38;100833.25;;;2.21;82.21
69214;BME280;56325;47.030;18.518;2023-01-28T11:10:25;100835.16;;;1.99;82.43
69214;BME280;56325;47.030;18.518;2023-01-28T11:13:02;100830.91;;;2.12;83.01
69214;BME280;56325;47.030;18.518;2023-01-28T11:15:45;100833.22;;;2.03;83.02
69214;BME280;56325;47.030;18.518;2023-01-28T11:18:22;100828.97;;;2.20;83.16
69214;BME280;56325;47.030;18.518;2023-01-28T11:21:00;100813.88;;;2.33;82.75
69214;BME280;56325;47.030;18.518;2023-01-28T11:23:45;100829.00;;;2.41;82.67
69214;BME280;56325;47.030;18.518;2023-01-28T11:26:24;100821.62;;;2.52;81.72
69214;BME280;56325;47.030;18.518;2023-01-28T11:28:59;100831.31;;;2.36;81.99
69214;BME280;56325;47.030;18.518;2023-01-28T11:31:41;100837.91;;;2.52;81.95
69214;BME280;56325;47.030;18.518;2023-01-28T11:34:18;100828.22;;;2.48;81.40
69214;BME280;56325;47.030;18.518;2023-01-28T11:36:54;100827.81;;;2.49;81.79
69214;BME280;56325;47.030;18.518;2023-01-28T11:39:36;100828.22;;;2.44;81.42
69214;BME280;56325;47.030;18.518;2023-01-28T11:42:13;100824.34;;;2.38;82.46
69214;BME280;56325;47.030;18.518;2023-01-28T11:44:49;100822.00;;;2.54;81.64
69214;BME280;56325;47.030;18.518;2023-01-28T11:47:33;100812.69;;;2.48;81.73
69214;BME280;56325;47.030;18.518;2023-01-28T11:50:21;100810.37;;;2.57;81.54
69214;BME280;56325;47.030;18.518;2023-01-28T11:53:04;100812.31;;;2.50;81.30
69214;BME280;56325;47.030;18.518;2023-01-28T11:55:50;100804.56;;;2.52;81.86
69214;BME280;56325;47.030;18.518;2023-01-28T11:58:38;100804.91;;;2.61;82.11
69214;BME280;56325;47.030;18.518;2023-01-28T12:01:21;100804.94;;;2.50;82.58
69214;BME280;56325;47.030;18.518;2023-01-28T12:04:18;100811.47;;;2.67;81.71
69214;BME280;56325;47.030;18.518;2023-01-28T12:07:07;100808.78;;;2.63;81.28
69214;BME280;56325;47.030;18.518;2023-01-28T12:09:52;100808.03;;;2.52;81.36
69214;BME280;56325;47.030;18.518;2023-01-28T12:12:42;100806.84;;;2.60;81.08
69214;BME280;56325;47.030;18.518;2023-01-28T12:18:34;100813.84;;;2.58;81.78
69214;BME280;56325;47.030;18.518;2023-01-28T12:21:19;100811.91;;;2.48;81.14
69214;BME280;56325;47.030;18.518;2023-01-28T12:24:06;100814.97;;;2.68;81.97
69214;BME280;56325;47.030;18.518;2023-01-28T12:26:50;100803.28;;;2.88;81.41
69214;BME280;56325;47.030;18.518;2023-01-28T12:29:29;100805.59;;;2.93;80.11
69214;BME280;56325;47.030;18.518;2023-01-28T12:32:23;100807.16;;;2.91;80.54
69214;BME280;56325;47.030;18.518;2023-01-28T12:35:26;100802.50;;;2.95;81.00
69214;BME280;56325;47.030;18.518;2023-01-28T12:38:14;100795.56;;;2.80;80.03
69214;BME280;56325;47.030;18.518;2023-01-28T12:40:57;100806.44;;;2.66;80.78
69214;BME280;56325;47.030;18.518;2023-01-28T12:43:42;100809.56;;;2.60;81.54
69214;BME280;56325;47.030;18.518;2023-01-28T12:46:28;100814.97;;;2.60;80.86
69214;BME280;56325;47.030;18.518;2023-01-28T12:49:07;100822.00;;;2.58;80.72
69214;BME280;56325;47.030;18.518;2023-01-28T12:51:58;100815.75;;;2.64;81.18
69214;BME280;56325;47.030;18.518;2023-01-28T12:54:40;100814.56;;;2.80;80.50
69214;BME280;56325;47.030;18.518;2023-01-28T12:57:22;100816.44;;;3.01;80.58
69214;BME280;56325;47.030;18.518;2023-01-28T13:00:04;100822.75;;;2.62;80.77
69214;BME280;56325;47.030;18.518;2023-01-28T13:02:43;100825.50;;;2.51;81.21
69214;BME280;56325;47.030;18.518;2023-01-28T13:05:21;100825.09;;;2.60;80.25
69214;BME280;56325;47.030;18.518;2023-01-28T13:08:00;100828.97;;;2.59;81.48
69214;BME280;56325;47.030;18.518;2023-01-28T13:10:41;100831.31;;;2.50;81.05
69214;BME280;56325;47.030;18.518;2023-01-28T13:13:19;100830.53;;;2.56;81.08
69214;BME280;56325;47.030;18.518;2023-01-28T13:15:56;100828.22;;;2.55;80.99
69214;BME280;56325;47.030;18.518;2023-01-28T13:18:43;100830.94;;;2.51;81.40
69214;BME280;56325;47.030;18.518;2023-01-28T13:21:31;100833.63;;;2.55;80.90
69214;BME280;56325;47.030;18.518;2023-01-28T13:24:22;100836.34;;;2.58;81.05
69214;BME280;56325;47.030;18.518;2023-01-28T13:27:10;100839.06;;;2.58;80.53
69214;BME280;56325;47.030;18.518;2023-01-28T13:29:47;100845.62;;;2.64;81.58
69214;BME280;56325;47.030;18.518;2023-01-28T13:32:29;100842.94;;;2.57;81.28
69214;BME280;56325;47.030;18.518;2023-01-28T13:35:05;100847.16;;;2.66;81.37
69214;BME280;56325;47.030;18.518;2023-01-28T13:37:43;100839.84;;;2.52;81.87
69214;BME280;56325;47.030;18.518;2023-01-28T13:40:23;100843.34;;;3.65;94.60
69214;BME280;56325;47.030;18.518;2023-01-28T13:43:02;100842.00;;;3.24;82.47
69214;BME280;56325;47.030;18.518;2023-01-28T13:45:37;100854.16;;;2.74;81.73
69214;BME280;56325;47.030;18.518;2023-01-28T13:48:22;100862.34;;;2.56;83.17
69214;BME280;56325;47.030;18.518;2023-01-28T13:51:01;100860.78;;;2.51;83.43
69214;BME280;56325;47.030;18.518;2023-01-28T13:53:40;100860.41;;;2.49;82.17
69214;BME280;56325;47.030;18.518;2023-01-28T13:56:21;100865.06;;;2.52;82.89
69214;BME280;56325;47.030;18.518;2023-01-28T14:08:46;100876.28;;;2.33;83.49
69214;BME280;56325;47.030;18.518;2023-01-28T14:11:53;100867.34;;;2.22;84.26